Time;durP1;ratioP1;P1;durP2;ratioP2;P2;SDS_P1;SDS_P2;PMS_P1;PMS_P2;Temp;Humidity;BMP_temperature;BMP_pressure;BME280_temperature;BME280_humidity;BME280_pressure;Samples;Min_cycle;Max_cycle;Signal;HPM_P1;HPM_P2
2023/09/24 00:02:06;;;;;;;9.65;7.97;;;12.90;99.90;;;;;;5088513;28;20021;-83
2023/09/24 00:04:32;;;;;;;12.23;7.88;;;12.90;99.90;;;;;;5092279;28;20404;-84
2023/09/24 00:06:58;;;;;;;13.48;8.68;;;12.90;99.90;;;;;;5089586;28;20028;-78
2023/09/24 00:09:23;;;;;;;12.90;8.93;;;12.80;99.90;;;;;;5088577;28;20024;-83
2023/09/24 00:11:49;;;;;;;12.27;9.60;;;12.90;99.90;;;;;;5089832;28;20078;-79
2023/09/24 00:14:14;;;;;;;10.60;8.65;;;12.80;99.90;;;;;;5088720;28;20012;-79
2023/09/24 00:16:40;;;;;;;12.23;8.85;;;12.80;99.90;;;;;;5081812;28;20032;-79
2023/09/24 00:19:07;;;;;;;12.73;9.23;;;12.80;99.90;;;;;;5090084;28;20028;-84
2023/09/24 00:21:32;;;;;;;15.05;10.48;;;12.80;99.90;;;;;;5088859;28;20480;-78
2023/09/24 00:23:58;;;;;;;11.23;9.05;;;12.70;99.90;;;;;;5090180;28;20020;-84
2023/09/24 00:26:27;;;;;;;12.60;8.93;;;12.70;99.90;;;;;;5089365;28;20602;-79
2023/09/24 00:28:52;;;;;;;10.88;8.10;;;12.70;99.90;;;;;;5089981;28;20028;-83
2023/09/24 00:31:18;;;;;;;9.80;6.72;;;12.70;99.90;;;;;;5090231;28;20051;-84
2023/09/24 00:33:43;;;;;;;8.45;6.82;;;12.60;99.90;;;;;;5090712;28;20107;-84
2023/09/24 00:36:09;;;;;;;8.40;6.78;;;12.50;99.90;;;;;;5088676;28;20024;-79
2023/09/24 00:38:37;;;;;;;6.57;5.80;;;12.50;99.90;;;;;;5089303;28;20048;-79
2023/09/24 00:41:03;;;;;;;7.65;5.43;;;12.50;99.90;;;;;;5088869;28;20082;-84
2023/09/24 00:43:31;;;;;;;8.23;5.00;;;12.50;99.90;;;;;;5090974;28;20024;-78
2023/09/24 00:45:59;;;;;;;8.30;5.05;;;12.50;99.90;;;;;;5089455;28;20020;-78
2023/09/24 00:48:27;;;;;;;5.10;4.50;;;12.40;99.90;;;;;;5091390;28;20027;-79
2023/09/24 00:50:57;;;;;;;6.15;4.57;;;12.40;99.90;;;;;;5079330;28;20470;-79
2023/09/24 00:53:26;;;;;;;5.30;4.30;;;12.40;99.90;;;;;;5075639;28;20019;-83
2023/09/24 00:55:51;;;;;;;7.60;4.35;;;12.30;99.90;;;;;;5077135;28;20024;-81
2023/09/24 00:58:17;;;;;;;5.00;4.18;;;12.30;99.90;;;;;;5076929;28;20029;-84
2023/09/24 01:00:45;;;;;;;6.90;5.25;;;12.30;99.90;;;;;;5078380;28;20024;-81
2023/09/24 01:03:12;;;;;;;4.90;4.03;;;12.30;99.90;;;;;;5073986;28;20078;-80
2023/09/24 01:05:38;;;;;;;5.18;3.83;;;12.30;99.90;;;;;;5074685;28;20052;-83
2023/09/24 01:08:04;;;;;;;6.38;4.68;;;12.30;99.90;;;;;;5073926;28;20469;-79
2023/09/24 01:10:30;;;;;;;12.38;4.93;;;12.40;99.90;;;;;;5088311;28;20023;-83
2023/09/24 01:13:00;;;;;;;5.65;4.03;;;12.30;99.90;;;;;;5093692;28;20432;-78
2023/09/24 01:15:27;;;;;;;5.03;3.92;;;12.30;99.90;;;;;;5094609;28;20469;-84
2023/09/24 01:17:53;;;;;;;5.18;4.68;;;12.20;99.90;;;;;;5094704;28;20031;-83
2023/09/24 01:20:24;;;;;;;8.50;4.43;;;12.20;99.90;;;;;;5094453;28;20020;-78
2023/09/24 01:22:50;;;;;;;4.03;3.67;;;12.20;99.90;;;;;;5093367;28;20113;-83
2023/09/24 01:25:19;;;;;;;4.68;2.75;;;12.20;99.90;;;;;;5092547;28;20103;-79
2023/09/24 01:27:46;;;;;;;4.63;3.55;;;12.10;99.90;;;;;;5093195;28;20024;-78
2023/09/24 01:30:15;;;;;;;4.22;3.83;;;12.10;99.90;;;;;;5092270;28;20016;-84
2023/09/24 01:32:41;;;;;;;3.85;3.50;;;12.10;99.90;;;;;;5093027;28;20377;-84
2023/09/24 01:35:10;;;;;;;4.15;3.22;;;12.10;99.90;;;;;;5092764;28;20016;-84
2023/09/24 01:37:38;;;;;;;3.45;3.15;;;12.10;99.90;;;;;;5092723;28;20028;-79
2023/09/24 01:40:15;;;;;;;3.30;3.03;;;12.10;99.90;;;;;;5093871;28;20046;-79
2023/09/24 01:42:40;;;;;;;5.03;3.70;;;12.10;99.90;;;;;;5083427;28;20025;-78
2023/09/24 01:45:08;;;;;;;3.70;3.30;;;12.10;99.90;;;;;;5091542;28;20031;-83
2023/09/24 01:47:36;;;;;;;4.38;3.08;;;12.20;99.90;;;;;;5087216;28;20020;-79
2023/09/24 01:50:06;;;;;;;6.30;2.97;;;12.20;99.90;;;;;;5091982;28;20020;-82
2023/09/24 01:52:34;;;;;;;4.43;2.90;;;12.10;99.90;;;;;;5087376;28;20089;-79
2023/09/24 01:55:00;;;;;;;3.08;2.78;;;12.10;99.90;;;;;;5090393;28;20024;-82
2023/09/24 01:57:26;;;;;;;3.00;2.67;;;12.10;99.90;;;;;;5087899;28;20023;-80
2023/09/24 01:59:52;;;;;;;6.70;3.47;;;12.20;99.90;;;;;;5091026;28;20040;-81
2023/09/24 02:02:18;;;;;;;4.30;3.90;;;12.20;99.90;;;;;;5085606;28;20021;-80
2023/09/24 02:04:43;;;;;;;5.05;3.38;;;12.20;99.90;;;;;;5083982;28;20025;-80
2023/09/24 02:07:12;;;;;;;3.38;2.80;;;12.10;99.90;;;;;;5066408;28;20462;-82
2023/09/24 02:09:37;;;;;;;4.30;3.47;;;12.10;99.90;;;;;;5072448;28;20012;-82
2023/09/24 02:12:03;;;;;;;4.03;3.55;;;12.10;99.90;;;;;;5076409;28;20528;-82
2023/09/24 02:14:29;;;;;;;3.75;3.35;;;12.10;99.90;;;;;;5087088;28;20394;-79
2023/09/24 02:16:55;;;;;;;4.47;3.58;;;12.10;99.90;;;;;;5072092;28;20029;-79
2023/09/24 02:19:24;;;;;;;6.20;3.63;;;12.20;99.90;;;;;;5089607;28;20038;-82
2023/09/24 02:21:50;;;;;;;3.55;3.28;;;12.10;99.90;;;;;;5087721;28;20024;-82
2023/09/24 02:24:15;;;;;;;4.25;3.28;;;12.10;99.90;;;;;;5082604;28;20025;-82
2023/09/24 02:26:42;;;;;;;4.07;3.78;;;12.00;99.90;;;;;;5085533;28;20533;-78
2023/09/24 02:29:07;;;;;;;3.63;3.33;;;12.00;99.90;;;;;;5092473;28;20027;-78
2023/09/24 02:31:33;;;;;;;3.33;3.03;;;12.00;99.90;;;;;;5091878;28;20377;-79
2023/09/24 02:33:59;;;;;;;4.93;3.55;;;12.00;99.90;;;;;;5086448;28;20025;-79
2023/09/24 02:36:24;;;;;;;4.55;4.15;;;12.00;99.90;;;;;;5073909;28;20021;-82
2023/09/24 02:38:50;;;;;;;4.75;4.20;;;12.00;99.90;;;;;;5072016;28;20140;-78
2023/09/24 02:41:17;;;;;;;6.20;4.10;;;11.90;99.90;;;;;;5073362;28;20029;-78
2023/09/24 02:43:43;;;;;;;4.10;3.60;;;11.90;99.90;;;;;;5072292;28;20111;-82
2023/09/24 02:46:09;;;;;;;4.28;3.67;;;11.90;99.90;;;;;;5072504;28;20112;-82
2023/09/24 02:48:36;;;;;;;4.50;3.85;;;11.90;99.90;;;;;;5073970;28;20448;-82
2023/09/24 02:51:09;;;;;;;3.92;3.53;;;11.90;99.90;;;;;;5072996;28;20059;-78
2023/09/24 02:53:38;;;;;;;4.10;3.72;;;11.90;99.90;;;;;;5074286;28;20025;-78
2023/09/24 02:56:04;;;;;;;3.95;3.47;;;11.90;99.90;;;;;;5074049;28;20030;-78
2023/09/24 02:58:34;;;;;;;3.97;3.58;;;11.90;99.90;;;;;;5074080;28;20111;-77
2023/09/24 03:00:59;;;;;;;5.40;3.88;;;11.80;99.90;;;;;;5073845;28;20024;-78
2023/09/24 03:03:25;;;;;;;4.05;3.65;;;11.70;99.90;;;;;;5074501;28;20477;-82
2023/09/24 03:05:51;;;;;;;4.60;4.20;;;11.70;99.90;;;;;;5072732;28;20401;-82
2023/09/24 03:08:16;;;;;;;4.47;4.10;;;11.70;99.90;;;;;;5072390;28;20017;-82
2023/09/24 03:10:42;;;;;;;4.22;3.90;;;11.70;99.90;;;;;;5073931;28;20108;-82
2023/09/24 03:13:08;;;;;;;4.28;3.83;;;11.80;99.90;;;;;;5073894;28;20020;-83
2023/09/24 03:15:34;;;;;;;3.65;3.35;;;11.70;99.90;;;;;;5073768;28;20021;-78
2023/09/24 03:18:01;;;;;;;5.93;3.42;;;11.70;99.90;;;;;;5072500;28;20079;-84
2023/09/24 03:20:29;;;;;;;4.65;3.67;;;11.70;99.90;;;;;;5080639;28;20359;-84
2023/09/24 03:23:03;;;;;;;4.82;4.13;;;11.70;99.90;;;;;;5076312;28;20043;-83
2023/09/24 03:25:29;;;;;;;5.15;3.72;;;11.70;99.90;;;;;;5073515;28;20104;-83
2023/09/24 03:27:57;;;;;;;4.18;3.88;;;11.70;99.90;;;;;;5071957;28;20490;-83
2023/09/24 03:30:23;;;;;;;4.15;3.85;;;11.70;99.90;;;;;;5071626;28;20394;-78
2023/09/24 03:32:52;;;;;;;5.20;4.70;;;11.70;99.90;;;;;;5074995;28;20027;-82
2023/09/24 03:35:24;;;;;;;4.63;4.10;;;11.70;99.90;;;;;;5092663;28;20035;-78
2023/09/24 03:37:50;;;;;;;4.90;3.35;;;11.70;99.90;;;;;;5091794;28;20490;-78
2023/09/24 03:40:17;;;;;;;4.50;3.78;;;11.70;99.90;;;;;;5092517;28;20400;-78
2023/09/24 03:42:44;;;;;;;6.10;4.57;;;11.70;99.90;;;;;;5091749;28;20028;-83
2023/09/24 03:45:14;;;;;;;5.55;4.03;;;11.70;99.90;;;;;;5092417;28;20034;-82
2023/09/24 03:47:41;;;;;;;3.60;3.40;;;11.70;99.90;;;;;;5091100;28;20387;-82
2023/09/24 03:50:13;;;;;;;4.38;4.00;;;11.60;99.90;;;;;;5085330;28;20048;-83
2023/09/24 03:52:39;;;;;;;4.23;3.93;;;11.60;99.90;;;;;;5089865;28;20020;-79
2023/09/24 03:55:05;;;;;;;4.15;3.75;;;11.60;99.90;;;;;;5091630;28;20474;-83
2023/09/24 03:57:31;;;;;;;4.78;3.90;;;11.60;99.90;;;;;;5090351;28;20069;-83
2023/09/24 03:59:57;;;;;;;4.90;4.40;;;11.50;99.90;;;;;;5089615;28;20031;-83
2023/09/24 04:02:24;;;;;;;4.70;4.30;;;11.50;99.90;;;;;;5090221;28;20023;-82
2023/09/24 04:04:50;;;;;;;5.03;4.57;;;11.50;99.90;;;;;;5090560;28;20017;-81
2023/09/24 04:07:19;;;;;;;7.22;4.18;;;11.50;99.90;;;;;;5078629;28;20031;-82
2023/09/24 04:09:45;;;;;;;5.40;4.10;;;11.50;99.90;;;;;;5088649;28;20024;-83
2023/09/24 04:12:13;;;;;;;3.90;3.60;;;11.50;99.90;;;;;;5090379;28;20028;-78
2023/09/24 04:14:38;;;;;;;4.40;4.00;;;11.40;99.90;;;;;;5063294;28;20025;-83
2023/09/24 04:17:04;;;;;;;4.22;3.78;;;11.40;99.90;;;;;;5070592;28;20020;-79
2023/09/24 04:19:32;;;;;;;4.35;3.85;;;11.40;99.90;;;;;;5072193;28;20037;-83
2023/09/24 04:21:57;;;;;;;4.22;3.80;;;11.40;99.90;;;;;;5064471;28;20024;-79
2023/09/24 04:24:24;;;;;;;5.80;4.03;;;11.40;99.90;;;;;;5078304;28;20428;-83
2023/09/24 04:26:54;;;;;;;4.60;3.83;;;11.50;99.90;;;;;;5074601;28;20385;-79
2023/09/24 04:29:20;;;;;;;5.13;4.00;;;11.40;99.90;;;;;;5076814;28;20028;-82
2023/09/24 04:31:46;;;;;;;3.88;3.58;;;11.40;99.90;;;;;;5094594;28;20032;-82
2023/09/24 04:34:13;;;;;;;4.68;3.80;;;11.50;99.90;;;;;;5094405;28;20387;-79
2023/09/24 04:36:39;;;;;;;4.80;3.30;;;11.50;99.90;;;;;;5074542;28;20031;-79
2023/09/24 04:39:07;;;;;;;4.65;4.25;;;11.50;99.90;;;;;;5075350;28;20051;-83
2023/09/24 04:41:33;;;;;;;9.52;4.68;;;11.50;99.90;;;;;;5074678;28;20104;-79
2023/09/24 04:43:59;;;;;;;4.20;3.90;;;11.50;99.90;;;;;;5075526;28;20045;-83
2023/09/24 04:46:25;;;;;;;4.13;3.53;;;11.50;99.90;;;;;;5074677;28;20062;-78
2023/09/24 04:48:51;;;;;;;3.97;3.78;;;11.50;99.90;;;;;;5075883;28;20024;-79
2023/09/24 04:51:17;;;;;;;4.65;4.22;;;11.50;99.90;;;;;;5075912;28;20531;-79
2023/09/24 04:53:42;;;;;;;6.88;4.30;;;11.50;99.90;;;;;;5075507;28;20024;-83
2023/09/24 04:56:08;;;;;;;7.20;4.35;;;11.50;99.90;;;;;;5074414;28;20051;-82
2023/09/24 04:58:35;;;;;;;4.93;4.43;;;11.50;99.90;;;;;;5075505;28;20371;-83
2023/09/24 05:01:07;;;;;;;5.45;4.93;;;11.50;99.90;;;;;;5085906;28;20178;-83
2023/09/24 05:03:37;;;;;;;5.38;4.85;;;11.60;99.90;;;;;;5075248;28;20025;-79
2023/09/24 05:06:03;;;;;;;4.35;3.95;;;11.60;99.90;;;;;;5078043;28;20427;-78
2023/09/24 05:08:29;;;;;;;4.38;3.97;;;11.60;99.90;;;;;;5073634;28;20115;-80
2023/09/24 05:10:55;;;;;;;4.43;3.95;;;11.60;99.90;;;;;;5074442;28;20048;-80
2023/09/24 05:13:21;;;;;;;5.07;4.50;;;11.70;99.90;;;;;;5077405;28;20497;-82
2023/09/24 05:15:59;;;;;;;4.50;4.07;;;11.70;99.90;;;;;;5068189;28;20024;-83
2023/09/24 05:18:26;;;;;;;6.35;4.65;;;11.80;99.90;;;;;;5073324;28;20039;-84
2023/09/24 05:20:52;;;;;;;7.10;4.72;;;11.80;99.90;;;;;;5071417;28;20111;-79
2023/09/24 05:23:18;;;;;;;5.75;4.50;;;11.90;99.90;;;;;;5070455;28;20182;-83
2023/09/24 05:25:43;;;;;;;5.93;4.32;;;11.90;99.90;;;;;;5072275;28;20028;-83
2023/09/24 05:28:09;;;;;;;4.40;4.10;;;11.80;99.90;;;;;;5071833;28;20020;-80
2023/09/24 05:30:35;;;;;;;4.57;4.18;;;11.80;99.90;;;;;;5079580;28;20016;-80
2023/09/24 05:33:01;;;;;;;6.88;4.63;;;11.90;99.90;;;;;;5085061;28;20045;-80
2023/09/24 05:35:26;;;;;;;5.20;4.65;;;11.90;99.90;;;;;;5079486;28;20478;-79
2023/09/24 05:37:52;;;;;;;4.70;4.30;;;11.90;99.90;;;;;;5073270;28;20056;-79
2023/09/24 05:40:18;;;;;;;6.07;5.57;;;11.90;99.90;;;;;;5073600;28;20599;-80
2023/09/24 05:42:44;;;;;;;6.35;5.00;;;11.90;99.90;;;;;;5071774;28;20021;-80
2023/09/24 05:45:10;;;;;;;6.25;4.93;;;11.90;99.90;;;;;;5072057;28;20056;-80
2023/09/24 05:47:36;;;;;;;6.68;4.10;;;11.90;99.90;;;;;;5076354;28;20029;-80
2023/09/24 05:50:05;;;;;;;5.95;5.45;;;11.90;99.90;;;;;;5075794;28;20042;-79
2023/09/24 05:52:30;;;;;;;7.70;6.75;;;11.80;99.90;;;;;;5070648;28;20055;-78
2023/09/24 05:54:57;;;;;;;6.47;5.82;;;11.80;99.90;;;;;;5071373;28;20436;-79
2023/09/24 05:57:26;;;;;;;4.70;4.25;;;11.80;99.90;;;;;;5072824;28;20024;-79
2023/09/24 05:59:53;;;;;;;4.45;3.85;;;11.90;99.90;;;;;;5088945;28;20075;-79
2023/09/24 06:02:22;;;;;;;6.05;5.07;;;11.90;99.90;;;;;;5082463;28;20017;-79
2023/09/24 06:04:49;;;;;;;6.28;5.68;;;11.90;99.90;;;;;;5055331;28;20079;-80
2023/09/24 06:07:14;;;;;;;6.22;4.90;;;11.90;99.90;;;;;;5077905;28;20104;-79
2023/09/24 06:09:40;;;;;;;4.47;4.07;;;12.00;99.90;;;;;;5079267;28;20477;-84
2023/09/24 06:12:06;;;;;;;4.45;4.00;;;12.10;99.90;;;;;;5073383;28;20046;-84
2023/09/24 06:14:31;;;;;;;4.80;4.00;;;12.10;99.90;;;;;;5072053;28;20017;-84
2023/09/24 06:16:58;;;;;;;4.47;3.95;;;12.20;99.90;;;;;;5070873;28;20540;-83
2023/09/24 06:19:23;;;;;;;6.30;4.13;;;12.30;99.90;;;;;;5071765;28;20040;-80
2023/09/24 06:21:53;;;;;;;5.35;3.97;;;12.20;99.90;;;;;;5087815;28;20028;-83
2023/09/24 06:24:20;;;;;;;5.18;4.22;;;12.30;99.90;;;;;;5079766;28;20028;-83
2023/09/24 06:26:45;;;;;;;5.50;4.60;;;12.40;99.90;;;;;;5060609;28;20034;-79
2023/09/24 06:29:11;;;;;;;7.40;4.50;;;12.40;99.90;;;;;;5074024;28;20399;-80
2023/09/24 06:31:38;;;;;;;7.68;4.88;;;12.50;99.90;;;;;;5074775;28;20016;-79
2023/09/24 06:34:03;;;;;;;5.28;4.78;;;12.40;99.90;;;;;;5083705;28;20052;-83
2023/09/24 06:36:29;;;;;;;5.05;4.40;;;12.40;99.90;;;;;;5071866;28;20078;-84
2023/09/24 06:38:56;;;;;;;8.18;4.13;;;12.50;99.90;;;;;;5077516;28;20485;-84
2023/09/24 06:41:22;;;;;;;11.77;9.02;;;12.40;99.90;;;;;;5086876;28;20107;-83
2023/09/24 06:43:48;;;;;;;5.32;4.82;;;12.50;99.90;;;;;;5082471;28;20027;-84
2023/09/24 06:46:13;;;;;;;9.00;4.35;;;12.50;99.90;;;;;;5067896;28;20025;-80
2023/09/24 06:48:39;;;;;;;5.55;4.13;;;12.60;99.90;;;;;;5075575;28;20028;-84
2023/09/24 06:51:07;;;;;;;6.95;5.72;;;12.50;99.90;;;;;;5088747;28;20016;-84
2023/09/24 06:53:32;;;;;;;5.95;4.90;;;12.50;99.90;;;;;;5083056;28;20020;-79
2023/09/24 06:55:58;;;;;;;5.30;4.80;;;12.60;99.90;;;;;;5084377;28;20034;-85
2023/09/24 06:58:24;;;;;;;4.88;4.25;;;12.60;99.90;;;;;;5072444;28;20075;-81
2023/09/24 07:00:50;;;;;;;5.93;4.50;;;12.50;99.90;;;;;;5078685;28;20016;-84
2023/09/24 07:03:16;;;;;;;9.57;5.63;;;12.50;99.90;;;;;;5077258;28;20021;-79
2023/09/24 07:05:42;;;;;;;4.95;4.45;;;12.60;99.90;;;;;;5077060;28;20427;-84
2023/09/24 07:08:07;;;;;;;4.72;4.32;;;12.60;99.90;;;;;;5081769;28;20020;-84
2023/09/24 07:10:33;;;;;;;6.40;4.82;;;12.70;99.90;;;;;;5076240;28;20035;-84
2023/09/24 07:12:59;;;;;;;5.60;5.03;;;12.80;99.90;;;;;;5082861;28;20103;-84
2023/09/24 07:15:25;;;;;;;5.93;5.32;;;12.90;99.90;;;;;;5078932;28;20017;-85
2023/09/24 07:17:51;;;;;;;6.13;5.53;;;12.90;99.90;;;;;;5071954;28;20036;-85
2023/09/24 07:20:17;;;;;;;7.32;5.07;;;12.90;99.90;;;;;;5089879;28;20027;-86
2023/09/24 07:22:43;;;;;;;7.63;5.30;;;12.90;99.90;;;;;;5089891;28;20115;-85
2023/09/24 07:25:10;;;;;;;4.90;4.43;;;13.00;99.90;;;;;;5083228;28;20103;-78
2023/09/24 07:27:36;;;;;;;5.45;4.47;;;13.00;99.90;;;;;;5089847;28;20024;-78
2023/09/24 07:30:02;;;;;;;8.48;5.07;;;12.90;99.90;;;;;;5077170;28;20029;-79
2023/09/24 07:32:29;;;;;;;5.50;4.82;;;13.00;99.90;;;;;;5076643;28;20040;-84
2023/09/24 07:34:54;;;;;;;4.75;4.03;;;13.00;99.90;;;;;;5075178;28;20020;-79
2023/09/24 07:37:20;;;;;;;6.25;4.53;;;13.00;99.90;;;;;;5073716;28;20095;-79
2023/09/24 07:39:49;;;;;;;6.13;4.45;;;13.00;99.90;;;;;;5074260;28;20509;-83
2023/09/24 07:42:15;;;;;;;5.05;4.15;;;13.00;99.90;;;;;;5073326;28;20069;-83
2023/09/24 07:44:41;;;;;;;4.82;4.43;;;12.90;99.90;;;;;;5067027;28;20028;-83
2023/09/24 07:47:07;;;;;;;7.00;4.95;;;13.00;99.90;;;;;;5075635;28;20014;-83
2023/09/24 07:49:32;;;;;;;4.32;3.90;;;13.10;99.90;;;;;;5071425;28;20100;-78
2023/09/24 07:51:58;;;;;;;4.72;4.32;;;13.20;99.90;;;;;;5074318;28;20450;-78
2023/09/24 07:54:24;;;;;;;6.32;3.95;;;13.30;99.90;;;;;;5070823;28;20008;-79
2023/09/24 07:56:49;;;;;;;4.60;4.20;;;13.40;99.90;;;;;;5073103;28;20039;-79
2023/09/24 07:59:15;;;;;;;5.05;4.05;;;13.30;99.90;;;;;;5072105;28;20043;-78
2023/09/24 08:01:41;;;;;;;4.65;3.90;;;13.30;99.90;;;;;;5074018;28;20005;-79
2023/09/24 08:04:08;;;;;;;6.18;4.22;;;13.40;99.90;;;;;;5076097;28;20128;-83
2023/09/24 08:06:34;;;;;;;6.20;4.68;;;13.40;99.90;;;;;;5081294;28;20382;-78
2023/09/24 08:08:59;;;;;;;6.85;4.57;;;13.30;99.90;;;;;;5075021;28;20020;-79
2023/09/24 08:11:25;;;;;;;4.28;3.80;;;13.30;99.90;;;;;;5075646;28;20047;-78
2023/09/24 08:13:54;;;;;;;5.05;4.63;;;13.40;99.90;;;;;;5072489;28;20021;-79
2023/09/24 08:16:20;;;;;;;4.93;4.40;;;13.30;99.90;;;;;;5074485;28;20029;-83
2023/09/24 08:18:45;;;;;;;4.70;4.25;;;13.40;99.90;;;;;;5077488;28;20040;-83
2023/09/24 08:21:11;;;;;;;4.47;4.07;;;13.40;99.90;;;;;;5073843;28;20051;-83
2023/09/24 08:23:37;;;;;;;5.15;4.55;;;13.50;99.90;;;;;;5074471;28;20055;-79
2023/09/24 08:26:03;;;;;;;5.20;4.65;;;13.60;99.90;;;;;;5087425;28;20016;-79
2023/09/24 08:28:29;;;;;;;6.90;4.25;;;13.60;99.90;;;;;;5082875;28;20028;-78
2023/09/24 08:30:54;;;;;;;4.70;4.15;;;13.70;99.90;;;;;;5077093;28;20024;-78
2023/09/24 08:33:20;;;;;;;4.43;4.03;;;13.70;99.90;;;;;;5077715;28;20126;-84
2023/09/24 08:35:46;;;;;;;4.95;3.55;;;13.70;99.90;;;;;;5074851;28;20265;-84
2023/09/24 08:38:13;;;;;;;4.32;3.92;;;13.80;99.90;;;;;;5076633;28;20126;-84
2023/09/24 08:40:40;;;;;;;3.38;3.08;;;13.90;99.90;;;;;;5077560;28;20020;-84
2023/09/24 08:43:13;;;;;;;5.45;3.90;;;13.90;99.90;;;;;;5076289;28;20035;-79
2023/09/24 08:45:40;;;;;;;4.03;3.63;;;14.00;99.90;;;;;;5077858;28;20020;-79
2023/09/24 08:48:08;;;;;;;4.13;3.70;;;14.00;99.90;;;;;;5076060;28;20115;-84
2023/09/24 08:50:40;;;;;;;4.57;3.83;;;14.00;99.90;;;;;;5075674;28;20115;-84
2023/09/24 08:53:12;;;;;;;7.07;4.57;;;14.10;99.90;;;;;;5074305;28;20036;-84
2023/09/24 08:55:43;;;;;;;;;;;14.10;99.90;;;;;;5081759;28;20035;-84
2023/09/24 08:58:09;;;;;;;4.35;3.60;;;14.10;99.90;;;;;;5088755;28;19912;-84
2023/09/24 09:00:34;;;;;;;3.60;3.30;;;14.00;99.90;;;;;;5083301;28;20019;-83
2023/09/24 09:03:05;;;;;;;3.38;3.08;;;14.10;99.90;;;;;;5086892;28;20126;-84
2023/09/24 09:05:36;;;;;;;3.40;3.10;;;14.10;99.90;;;;;;5062749;28;20021;-83
2023/09/24 09:08:03;;;;;;;3.55;3.08;;;14.00;99.90;;;;;;5067755;28;20021;-84
2023/09/24 09:10:34;;;;;;;3.08;2.70;;;14.10;99.90;;;;;;5070932;28;20029;-84
2023/09/24 09:13:13;;;;;;;3.42;3.13;;;14.10;99.90;;;;;;5058663;28;20024;-84
2023/09/24 09:15:41;;;;;;;3.45;2.97;;;14.20;99.90;;;;;;5076264;28;20028;-84
2023/09/24 09:18:24;;;;;;;5.00;3.35;;;14.20;99.90;;;;;;5088295;28;20024;-84
2023/09/24 09:20:51;;;;;;;3.90;3.47;;;14.30;99.90;;;;;;5075566;28;20055;-84
2023/09/24 09:23:33;;;;;;;4.05;3.42;;;14.40;99.90;;;;;;5092282;28;20444;-78
2023/09/24 09:25:59;;;;;;;3.97;3.10;;;14.50;99.90;;;;;;5094038;28;20028;-78
2023/09/24 09:28:29;;;;;;;3.92;3.53;;;14.50;99.90;;;;;;5094559;28;20104;-78
2023/09/24 09:31:09;;;;;;;4.72;3.70;;;14.50;99.90;;;;;;5092192;28;20054;-85
2023/09/24 09:33:42;;;;;;;3.10;2.78;;;14.50;99.90;;;;;;5092847;28;20050;-84
2023/09/24 09:36:25;;;;;;;;;;;14.50;99.90;;;;;;5091759;28;20009;-85
2023/09/24 09:38:51;;;;;;;3.67;3.10;;;14.50;99.90;;;;;;5091744;28;19920;-84
2023/09/24 09:41:18;;;;;;;3.80;3.50;;;14.50;99.90;;;;;;5093246;28;20020;-85
2023/09/24 09:43:47;;;;;;;3.22;2.90;;;14.40;99.90;;;;;;5091248;28;20046;-84
2023/09/24 09:46:19;;;;;;;3.80;3.03;;;14.40;99.90;;;;;;5068683;28;20016;-84
2023/09/24 09:48:53;;;;;;;4.13;3.40;;;14.40;99.90;;;;;;5093425;28;20023;-84
2023/09/24 09:51:20;;;;;;;4.85;3.42;;;14.50;99.90;;;;;;5060234;28;20099;-84
2023/09/24 09:53:47;;;;;;;3.53;3.05;;;14.60;99.90;;;;;;5066515;28;20032;-84
2023/09/24 09:56:14;;;;;;;3.47;3.17;;;14.60;99.90;;;;;;5064828;28;20029;-84
2023/09/24 09:58:41;;;;;;;3.25;2.90;;;14.60;99.90;;;;;;5073891;28;20032;-85
2023/09/24 10:01:07;;;;;;;4.72;2.85;;;14.80;99.90;;;;;;5071976;28;20417;-85
2023/09/24 10:03:36;;;;;;;3.38;3.05;;;14.90;99.90;;;;;;5072686;28;20047;-84
2023/09/24 10:06:04;;;;;;;3.78;3.45;;;14.90;99.90;;;;;;5073773;28;20024;-84
2023/09/24 10:08:41;;;;;;;3.45;2.78;;;15.00;99.90;;;;;;5073854;28;20480;-84
2023/09/24 10:11:09;;;;;;;3.58;2.70;;;15.00;99.90;;;;;;5062131;28;20101;-85
2023/09/24 10:13:50;;;;;;;4.20;3.38;;;15.10;99.90;;;;;;5071662;28;20025;-84
2023/09/24 10:16:29;;;;;;;5.63;3.35;;;15.10;99.90;;;;;;5062387;28;20025;-84
2023/09/24 10:18:56;;;;;;;3.92;3.00;;;15.10;99.90;;;;;;5060952;28;20119;-84
2023/09/24 10:21:30;;;;;;;3.95;3.17;;;15.20;99.90;;;;;;5073222;28;20035;-84
2023/09/24 10:23:57;;;;;;;4.18;3.78;;;15.20;99.90;;;;;;5061176;28;20027;-84
2023/09/24 10:26:48;;;;;;;2.92;2.72;;;15.20;99.90;;;;;;5071826;28;20111;-84
2023/09/24 10:29:18;;;;;;;4.10;3.15;;;15.20;99.90;;;;;;5063408;28;20071;-84
2023/09/24 10:32:05;;;;;;;5.63;2.78;;;15.20;99.90;;;;;;5062298;28;20052;-84
2023/09/24 10:34:57;;;;;;;6.30;2.90;;;15.30;99.90;;;;;;5061339;28;20027;-85
2023/09/24 10:37:30;;;;;;;3.67;2.70;;;15.40;99.90;;;;;;5063932;28;20497;-84
2023/09/24 10:40:04;;;;;;;;;;;15.50;99.90;;;;;;5066420;28;20044;-82
2023/09/24 10:42:43;;;;;;;4.97;3.00;;;15.60;99.90;;;;;;5068786;28;19904;-83
2023/09/24 10:45:12;;;;;;;2.60;2.45;;;15.60;99.90;;;;;;5072484;28;20024;-83
2023/09/24 10:47:44;;;;;;;3.78;2.70;;;15.80;99.90;;;;;;5073985;28;20052;-85
2023/09/24 10:50:11;;;;;;;2.67;2.47;;;15.90;99.90;;;;;;5075476;28;20016;-84
2023/09/24 10:52:46;;;;;;;3.70;2.38;;;16.10;99.90;;;;;;5068541;28;20024;-84
2023/09/24 10:55:12;;;;;;;3.08;2.88;;;16.00;99.90;;;;;;5072440;28;20363;-84
2023/09/24 10:57:37;;;;;;;4.18;2.80;;;16.10;99.90;;;;;;5066770;28;20043;-83
2023/09/24 11:00:04;;;;;;;2.60;2.30;;;16.10;99.90;;;;;;5070089;28;20033;-83
2023/09/24 11:02:30;;;;;;;2.35;2.15;;;16.10;99.90;;;;;;5062587;28;20015;-84
2023/09/24 11:05:01;;;;;;;2.75;2.55;;;16.20;99.90;;;;;;5060429;28;20099;-83
2023/09/24 11:07:27;;;;;;;2.83;2.42;;;16.20;99.90;;;;;;5071285;28;20019;-83
2023/09/24 11:09:53;;;;;;;2.47;2.08;;;16.20;99.90;;;;;;5067879;28;20021;-84
2023/09/24 11:12:21;;;;;;;4.72;2.58;;;16.10;99.90;;;;;;5060731;28;20090;-83
2023/09/24 11:14:55;;;;;;;5.10;2.15;;;16.20;99.90;;;;;;5070707;28;20506;-84
2023/09/24 11:17:21;;;;;;;2.00;1.90;;;16.30;99.90;;;;;;5071977;28;20036;-83
2023/09/24 11:19:51;;;;;;;2.97;1.77;;;16.10;98.80;;;;;;5070900;28;20032;-84
2023/09/24 11:22:24;;;;;;;1.98;1.85;;;16.20;96.60;;;;;;5071431;28;20031;-84
2023/09/24 11:25:09;;;;;;;5.93;2.03;;;16.20;98.20;;;;;;5071570;28;20064;-83
2023/09/24 11:27:49;;;;;;;2.45;2.25;;;16.20;99.90;;;;;;5052939;28;20025;-83
2023/09/24 11:30:17;;;;;;;2.33;2.08;;;16.20;99.90;;;;;;5074356;28;20039;-82
2023/09/24 11:32:44;;;;;;;4.18;2.08;;;16.30;99.90;;;;;;5070883;28;20028;-83
2023/09/24 11:35:20;;;;;;;3.28;1.95;;;16.10;99.40;;;;;;5070663;28;20078;-83
2023/09/24 11:37:46;;;;;;;1.52;1.45;;;16.10;97.50;;;;;;5065816;28;20029;-83
2023/09/24 11:40:26;;;;;;;2.42;1.65;;;16.00;95.00;;;;;;5072910;28;20128;-83
2023/09/24 11:43:04;;;;;;;1.95;1.60;;;16.00;99.50;;;;;;5071971;28;20508;-83
2023/09/24 11:45:39;;;;;;;3.05;2.03;;;16.10;99.90;;;;;;5070237;28;20043;-84
2023/09/24 11:48:11;;;;;;;4.22;1.92;;;16.10;99.90;;;;;;5070181;28;20017;-84
2023/09/24 11:50:39;;;;;;;5.03;2.05;;;16.10;99.90;;;;;;5071644;28;20440;-84
2023/09/24 11:53:05;;;;;;;2.55;2.35;;;16.00;99.90;;;;;;5056488;28;20020;-83
2023/09/24 11:55:31;;;;;;;2.30;2.10;;;16.00;99.90;;;;;;5071622;28;20108;-83
2023/09/24 11:57:57;;;;;;;3.42;2.08;;;16.10;99.90;;;;;;5071286;28;20500;-83
2023/09/24 12:00:23;;;;;;;3.25;2.28;;;16.00;99.90;;;;;;5072201;28;20020;-84
2023/09/24 12:02:49;;;;;;;2.42;2.22;;;15.90;99.90;;;;;;5070205;28;20027;-82
2023/09/24 12:05:15;;;;;;;2.28;2.08;;;15.90;99.90;;;;;;5072013;28;20029;-84
2023/09/24 12:07:42;;;;;;;2.65;1.90;;;15.90;99.90;;;;;;5071293;28;20021;-84
2023/09/24 12:10:08;;;;;;;2.55;2.35;;;15.80;99.90;;;;;;5071232;28;20426;-85
2023/09/24 12:12:34;;;;;;;4.65;2.22;;;15.80;99.90;;;;;;5070229;28;20017;-87
2023/09/24 12:15:00;;;;;;;2.88;2.10;;;15.90;99.90;;;;;;5071590;28;20056;-86
2023/09/24 12:17:29;;;;;;;4.95;2.15;;;15.90;99.90;;;;;;5069978;28;20048;-84
2023/09/24 12:19:54;;;;;;;3.33;2.55;;;15.90;99.90;;;;;;5068861;28;20031;-85
2023/09/24 12:22:22;;;;;;;5.25;2.60;;;16.00;99.90;;;;;;5071705;28;20021;-84
2023/09/24 12:24:48;;;;;;;2.22;2.03;;;16.00;99.90;;;;;;5069573;28;20028;-85
2023/09/24 12:27:14;;;;;;;3.05;2.20;;;15.80;99.90;;;;;;5071349;28;20470;-84
2023/09/24 12:29:39;;;;;;;2.85;2.20;;;15.80;99.90;;;;;;5071290;28;20024;-85
2023/09/24 12:32:05;;;;;;;2.72;1.90;;;15.80;99.90;;;;;;5070156;28;20155;-85
2023/09/24 12:34:31;;;;;;;3.47;2.78;;;15.80;99.90;;;;;;5071052;28;20020;-84
2023/09/24 12:37:00;;;;;;;2.35;2.25;;;15.90;99.90;;;;;;5068696;28;20031;-84
2023/09/24 12:39:25;;;;;;;5.97;2.30;;;16.00;99.90;;;;;;5069511;28;20044;-83
2023/09/24 12:41:51;;;;;;;3.35;2.65;;;15.80;99.90;;;;;;5071763;28;20106;-85
2023/09/24 12:44:17;;;;;;;4.90;2.95;;;15.90;99.90;;;;;;5071739;28;20012;-83
2023/09/24 12:46:43;;;;;;;3.55;2.30;;;15.80;99.90;;;;;;5064956;28;20036;-83
2023/09/24 12:49:09;;;;;;;3.03;2.72;;;16.00;99.90;;;;;;5065876;28;20064;-83
2023/09/24 12:51:35;;;;;;;2.47;2.30;;;16.20;99.90;;;;;;5070243;28;20109;-84